Amsterdam, New York
Current Conditions -  °F | °C
As of 6:15 PM on Wednesday 22 Oct 2014 (Local Time) from KNY0 Reporting Station
Overcast Overcast  
Wind Chill: 44°   Ceiling: 2600
Heat Index: 48°   Visibility: 10mi
Dew Point: 44°   Wind: 8mph
Humidity: 87%   Direction: 40°NE
Pressure: 30.02"   Gusts: 16mph
Location:  42.94°N, 74.19°W
Report Text: KNY0 222215Z AUTO 04007G14KT 010V070 10SM BKN026 OVC044 09/07 A3002 RMK AO2 T00870067
Loading
Personal Weather Stations






























Interactive Weather Map
Tropical Storm Tracking
New forecast layout! Learn more

10-Day Weather Forecast

Advertisements
Track Severe Weather on mobile